Time;durP1;ratioP1;P1;durP2;ratioP2;P2;SDS_P1;SDS_P2;PMS_P1;PMS_P2;Temp;Humidity;BMP_temperature;BMP_pressure;BME280_temperature;BME280_humidity;BME280_pressure;Samples;Min_cycle;Max_cycle;Signal;HPM_P1;HPM_P2
2023/04/29 00:00:09;;;;;;;;;;;19.40;47.20;;;;;;5096028;27;42901;-82
2023/04/29 00:02:35;;;;;;;;;;;19.40;47.60;;;;;;5106991;27;43122;-81
2023/04/29 00:05:03;;;;;;;;;;;19.50;47.00;;;;;;5106538;27;42750;-82
2023/04/29 00:07:30;;;;;;;;;;;19.50;47.00;;;;;;5105690;27;42968;-82
2023/04/29 00:09:55;;;;;;;;;;;19.50;46.90;;;;;;5104072;27;42927;-82
2023/04/29 00:12:21;;;;;;;;;;;19.50;46.90;;;;;;5084964;28;43688;-82
2023/04/29 00:14:46;;;;;;;;;;;19.50;46.90;;;;;;5085573;28;42960;-83
2023/04/29 00:17:12;;;;;;;;;;;19.50;47.00;;;;;;5085948;28;42940;-82
2023/04/29 00:19:37;;;;;;;;;;;19.50;47.00;;;;;;5086162;28;42932;-82
2023/04/29 00:22:02;;;;;;;;;;;19.50;47.00;;;;;;5085312;28;43342;-82
2023/04/29 00:24:28;;;;;;;;;;;19.50;47.00;;;;;;5083791;28;43022;-82
2023/04/29 00:26:54;;;;;;;;;;;;;;;;;;5085575;28;43275;-82
2023/04/29 00:29:22;;;;;;;;;;;;;;;;;;5085201;28;43937;-82
2023/04/29 00:31:48;;;;;;;;;;;19.40;47.30;;;;;;5085496;28;42896;-82
2023/04/29 00:34:13;;;;;;;;;;;19.40;47.30;;;;;;5085134;28;42950;-82
2023/04/29 00:36:39;;;;;;;;;;;19.40;47.30;;;;;;5083413;28;43004;-82
2023/04/29 00:39:04;;;;;;;;;;;19.40;47.30;;;;;;5084732;28;43024;-82
2023/04/29 00:41:30;;;;;;;;;;;19.40;47.20;;;;;;5084152;27;42982;-81
2023/04/29 00:43:56;;;;;;;;;;;19.50;47.20;;;;;;5089802;27;43049;-81
2023/04/29 00:46:21;;;;;;;;;;;19.50;47.30;;;;;;5105405;27;43861;-82
2023/04/29 00:48:47;;;;;;;;;;;19.40;47.20;;;;;;5094847;27;42999;-82
2023/04/29 00:51:13;;;;;;;;;;;19.40;47.30;;;;;;5085367;28;43008;-81
2023/04/29 00:53:39;;;;;;;;;;;19.40;47.40;;;;;;5084632;27;43021;-82
2023/04/29 00:56:06;;;;;;;;;;;19.40;47.40;;;;;;5084530;27;43289;-82
2023/04/29 00:58:34;;;;;;;;;;;19.30;47.40;;;;;;5084835;27;43401;-81
2023/04/29 01:01:03;;;;;;;;;;;19.40;47.50;;;;;;5070170;28;43047;-82
2023/04/29 01:03:31;;;;;;;;;;;19.40;47.50;;;;;;5084257;28;42986;-82
2023/04/29 01:06:17;;;;;;;;;;;19.40;47.60;;;;;;5084970;28;43012;-82
2023/04/29 01:08:51;;;;;;;;;;;19.30;47.50;;;;;;5084719;27;43135;-82
2023/04/29 01:11:20;;;;;;;;;;;19.40;47.50;;;;;;5084408;27;43040;-82
2023/04/29 01:13:49;;;;;;;;;;;19.40;47.70;;;;;;5084599;27;42889;-81
2023/04/29 01:16:22;;;;;;;;;;;19.40;47.70;;;;;;5084545;27;43620;-82
2023/04/29 01:18:58;;;;;;;;;;;19.30;47.60;;;;;;5083916;27;43046;-82
2023/04/29 01:21:24;;;;;;;;;;;19.40;47.50;;;;;;5084615;27;43601;-82
2023/04/29 01:23:55;;;;;;;;;;;19.50;47.40;;;;;;5085115;27;42750;-82
2023/04/29 01:26:21;;;;;;;;;;;19.40;47.40;;;;;;5083972;27;42992;-82
2023/04/29 01:28:49;;;;;;;;;;;19.40;47.50;;;;;;5085204;27;42905;-82
2023/04/29 01:31:21;;;;;;;;;;;19.40;47.50;;;;;;5084514;28;43640;-82
2023/04/29 01:33:46;;;;;;;;;;;19.40;47.60;;;;;;5085136;28;42940;-82
2023/04/29 01:36:12;;;;;;;;;;;;;;;;;;5081603;28;43226;-82
2023/04/29 01:38:38;;;;;;;;;;;19.30;47.50;;;;;;5081299;28;43744;-81
2023/04/29 01:41:09;;;;;;;;;;;19.50;47.50;;;;;;5083829;28;42940;-82
2023/04/29 01:43:36;;;;;;;;;;;19.50;47.40;;;;;;5083057;27;43122;-81
2023/04/29 01:46:04;;;;;;;;;;;19.50;47.40;;;;;;5083730;27;42963;-82
2023/04/29 01:48:30;;;;;;;;;;;19.50;47.40;;;;;;5084538;27;42928;-82
2023/04/29 01:50:55;;;;;;;;;;;19.50;47.50;;;;;;5082477;27;43397;-82
2023/04/29 01:53:21;;;;;;;;;;;19.50;47.50;;;;;;5083916;27;42820;-82
2023/04/29 01:55:46;;;;;;;;;;;19.50;47.50;;;;;;5083690;28;42866;-82
2023/04/29 01:58:12;;;;;;;;;;;19.50;47.40;;;;;;5084571;28;42858;-82
2023/04/29 02:00:37;;;;;;;;;;;19.50;47.50;;;;;;5083489;28;42916;-82
2023/04/29 02:03:03;;;;;;;;;;;19.50;47.70;;;;;;5084160;28;42869;-81
2023/04/29 02:05:32;;;;;;;;;;;19.40;47.90;;;;;;5084435;28;43525;-81
2023/04/29 02:07:59;;;;;;;;;;;19.40;48.00;;;;;;5085352;27;43023;-82
2023/04/29 02:10:25;;;;;;;;;;;19.40;48.00;;;;;;5085568;27;43650;-83
2023/04/29 02:12:50;;;;;;;;;;;19.40;48.00;;;;;;5087190;27;42986;-81
2023/04/29 02:15:16;;;;;;;;;;;19.40;48.00;;;;;;5086401;28;43150;-82
2023/04/29 02:17:42;;;;;;;;;;;19.50;47.90;;;;;;5087080;27;42829;-82
2023/04/29 02:20:09;;;;;;;;;;;19.50;47.90;;;;;;5087140;28;43043;-82
2023/04/29 02:22:34;;;;;;;;;;;19.50;47.90;;;;;;5084868;28;43160;-82
2023/04/29 02:25:00;;;;;;;;;;;19.50;47.80;;;;;;5086294;28;43694;-81
2023/04/29 02:27:26;;;;;;;;;;;19.60;47.90;;;;;;5090112;27;42902;-82
2023/04/29 02:29:51;;;;;;;;;;;19.50;47.80;;;;;;5106404;27;44612;-83
2023/04/29 02:32:19;;;;;;;;;;;19.60;47.80;;;;;;5097157;27;42940;-82
2023/04/29 02:34:44;;;;;;;;;;;19.60;47.80;;;;;;5086681;27;44504;-82
2023/04/29 02:37:10;;;;;;;;;;;19.50;47.80;;;;;;5086351;27;42941;-82
2023/04/29 02:39:36;;;;;;;;;;;19.50;47.80;;;;;;5087536;27;43123;-81
2023/04/29 02:42:01;;;;;;;;;;;19.50;47.70;;;;;;5086323;28;42969;-82
2023/04/29 02:44:27;;;;;;;;;;;19.50;47.70;;;;;;5096654;27;43298;-82
2023/04/29 02:46:53;;;;;;;;;;;19.50;47.80;;;;;;5089569;27;43021;-83
2023/04/29 02:49:20;;;;;;;;;;;19.50;47.90;;;;;;5086347;27;64213;-82
2023/04/29 02:51:48;;;;;;;;;;;19.50;48.00;;;;;;5086328;28;43023;-82
2023/04/29 02:54:14;;;;;;;;;;;19.40;48.00;;;;;;5087010;27;43465;-82
2023/04/29 02:56:40;;;;;;;;;;;19.50;48.10;;;;;;5087155;28;42914;-82
2023/04/29 02:59:05;;;;;;;;;;;19.50;48.10;;;;;;5087074;28;43614;-84
2023/04/29 03:01:31;;;;;;;;;;;19.50;48.10;;;;;;5086107;27;42802;-82
2023/04/29 03:03:57;;;;;;;;;;;19.40;48.20;;;;;;5086757;28;43702;-81
2023/04/29 03:06:22;;;;;;;;;;;19.40;48.30;;;;;;5085886;27;42928;-82
2023/04/29 03:08:48;;;;;;;;;;;19.40;48.40;;;;;;5086077;28;43056;-80
2023/04/29 03:11:13;;;;;;;;;;;19.30;48.40;;;;;;5086865;28;42937;-81
2023/04/29 03:13:39;;;;;;;;;;;19.40;48.30;;;;;;5084623;28;45438;-81
2023/04/29 03:16:05;;;;;;;;;;;19.50;48.30;;;;;;5086807;28;42991;-79
2023/04/29 03:18:31;;;;;;;;;;;19.40;48.30;;;;;;5085149;27;43158;-78
2023/04/29 03:20:57;;;;;;;;;;;19.40;48.40;;;;;;5095509;27;43123;-78
2023/04/29 03:23:22;;;;;;;;;;;19.50;48.40;;;;;;5105396;27;44409;-78
2023/04/29 03:25:48;;;;;;;;;;;19.50;48.40;;;;;;5106917;27;42973;-78
2023/04/29 03:28:14;;;;;;;;;;;19.50;48.40;;;;;;5089692;27;42889;-76
2023/04/29 03:30:40;;;;;;;;;;;19.50;48.40;;;;;;5085804;27;42906;-77
2023/04/29 03:33:05;;;;;;;;;;;19.50;48.40;;;;;;5080887;28;42896;-78
2023/04/29 03:35:31;;;;;;;;;;;19.40;48.40;;;;;;5081873;28;42960;-77
2023/04/29 03:37:56;;;;;;;;;;;19.40;48.40;;;;;;5083085;28;43721;-79
2023/04/29 03:40:22;;;;;;;;;;;19.50;48.40;;;;;;5067543;28;42849;-78
2023/04/29 03:42:47;;;;;;;;;;;19.50;48.40;;;;;;5078288;28;42967;-78
2023/04/29 03:45:13;;;;;;;;;;;19.50;48.40;;;;;;5084586;28;43099;-79
2023/04/29 03:47:39;;;;;;;;;;;19.50;48.40;;;;;;5083517;27;43856;-78
2023/04/29 03:50:05;;;;;;;;;;;19.50;48.50;;;;;;5083978;27;43967;-77
2023/04/29 03:52:30;;;;;;;;;;;19.50;48.50;;;;;;5085895;28;43693;-79
2023/04/29 03:54:56;;;;;;;;;;;19.50;48.60;;;;;;5085368;28;43015;-78
2023/04/29 03:57:21;;;;;;;;;;;19.50;48.50;;;;;;5086020;28;43028;-78
2023/04/29 03:59:49;;;;;;;;;;;19.50;48.50;;;;;;5085438;28;42829;-79
2023/04/29 04:02:15;;;;;;;;;;;19.60;48.60;;;;;;5085825;27;43473;-78
2023/04/29 04:04:41;;;;;;;;;;;19.50;48.60;;;;;;5083895;27;42953;-77
2023/04/29 04:07:07;;;;;;;;;;;;;;;;;;5081770;27;43367;-79
2023/04/29 04:09:32;;;;;;;;;;;19.50;48.70;;;;;;5084645;28;42900;-78
2023/04/29 04:11:59;;;;;;;;;;;19.50;49.10;;;;;;5083655;27;43491;-77
2023/04/29 04:14:24;;;;;;;;;;;19.40;49.10;;;;;;5085582;27;43601;-79
2023/04/29 04:16:50;;;;;;;;;;;;;;;;;;5084966;28;42983;-79
2023/04/29 04:19:16;;;;;;;;;;;19.50;48.90;;;;;;5085174;28;42881;-78
2023/04/29 04:21:41;;;;;;;;;;;19.50;48.90;;;;;;5085064;27;42977;-78
2023/04/29 04:24:07;;;;;;;;;;;19.50;48.90;;;;;;5085977;28;42982;-80
2023/04/29 04:26:33;;;;;;;;;;;19.60;49.00;;;;;;5085593;28;43422;-78
2023/04/29 04:28:58;;;;;;;;;;;19.50;49.20;;;;;;5084365;27;42953;-78
2023/04/29 04:31:24;;;;;;;;;;;19.40;49.40;;;;;;5079957;27;42948;-78
2023/04/29 04:33:49;;;;;;;;;;;19.40;49.50;;;;;;5085182;28;42978;-79
2023/04/29 04:36:15;;;;;;;;;;;19.40;49.50;;;;;;5085020;27;42870;-81
2023/04/29 04:38:40;;;;;;;;;;;19.40;49.40;;;;;;5085798;28;42948;-85
2023/04/29 04:41:07;;;;;;;;;;;19.40;49.40;;;;;;5083224;28;44611;-77
2023/04/29 04:43:32;;;;;;;;;;;19.40;49.40;;;;;;5085446;27;43171;-79
2023/04/29 04:45:58;;;;;;;;;;;19.50;49.30;;;;;;5085432;27;43987;-78
2023/04/29 04:48:23;;;;;;;;;;;19.50;49.20;;;;;;5084750;28;43066;-80
2023/04/29 04:50:49;;;;;;;;;;;19.60;49.30;;;;;;5084317;27;43480;-88
2023/04/29 04:53:14;;;;;;;;;;;19.50;49.30;;;;;;5094150;27;42933;-85
2023/04/29 04:55:40;;;;;;;;;;;19.50;49.30;;;;;;5083918;28;43711;-78
2023/04/29 04:58:05;;;;;;;;;;;19.50;49.30;;;;;;5074293;28;43012;-78
2023/04/29 05:00:31;;;;;;;;;;;19.50;49.50;;;;;;5084814;28;42981;-78
2023/04/29 05:02:57;;;;;;;;;;;19.50;49.40;;;;;;5084535;28;42906;-79
2023/04/29 05:05:22;;;;;;;;;;;19.50;49.20;;;;;;5084454;27;43071;-78
2023/04/29 05:07:50;;;;;;;;;;;19.60;49.20;;;;;;5085138;28;42894;-79
2023/04/29 05:10:15;;;;;;;;;;;19.50;49.20;;;;;;5084502;27;43542;-78
2023/04/29 05:12:41;;;;;;;;;;;19.50;49.30;;;;;;5084899;27;43157;-81
2023/04/29 05:15:07;;;;;;;;;;;19.50;49.30;;;;;;5084865;28;43040;-79
2023/04/29 05:17:33;;;;;;;;;;;19.50;49.30;;;;;;5085187;28;42921;-79
2023/04/29 05:19:59;;;;;;;;;;;19.50;49.40;;;;;;5085067;27;44932;-78
2023/04/29 05:22:24;;;;;;;;;;;19.50;49.50;;;;;;5085061;28;42882;-79
2023/04/29 05:24:51;;;;;;;;;;;19.50;49.50;;;;;;5084930;28;44016;-78
2023/04/29 05:27:17;;;;;;;;;;;19.50;49.80;;;;;;5084724;28;42991;-79
2023/04/29 05:29:43;;;;;;;;;;;19.50;49.80;;;;;;5084494;28;42893;-78
2023/04/29 05:32:08;;;;;;;;;;;19.50;49.70;;;;;;5084717;28;42967;-78
2023/04/29 05:34:34;;;;;;;;;;;19.50;49.60;;;;;;5083743;27;43557;-78
2023/04/29 05:37:00;;;;;;;;;;;19.50;49.50;;;;;;5074602;27;43323;-80
2023/04/29 05:39:25;;;;;;;;;;;19.50;49.40;;;;;;5071761;27;43328;-77
2023/04/29 05:41:51;;;;;;;;;;;19.60;49.30;;;;;;5080907;27;42849;-78
2023/04/29 05:44:16;;;;;;;;;;;19.50;49.40;;;;;;5088052;28;42902;-78
2023/04/29 05:46:42;;;;;;;;;;;19.50;49.60;;;;;;5086104;28;42919;-78
2023/04/29 05:49:07;;;;;;;;;;;19.50;49.70;;;;;;5087145;28;43050;-78
2023/04/29 05:51:33;;;;;;;;;;;19.50;49.80;;;;;;5087564;27;43141;-78
2023/04/29 05:53:59;;;;;;;;;;;19.50;49.70;;;;;;5083292;27;42899;-78
2023/04/29 05:56:24;;;;;;;;;;;19.50;49.70;;;;;;5087555;27;43076;-78
2023/04/29 05:58:50;;;;;;;;;;;19.50;49.70;;;;;;5088229;27;43066;-79
2023/04/29 06:01:16;;;;;;;;;;;19.60;49.70;;;;;;5084569;27;43027;-78
2023/04/29 06:03:42;;;;;;;;;;;19.50;49.70;;;;;;5086332;27;43494;-78
2023/04/29 06:06:07;;;;;;;;;;;19.50;49.80;;;;;;5087302;27;43044;-78
2023/04/29 06:08:33;;;;;;;;;;;19.50;49.80;;;;;;5085781;28;44600;-79
2023/04/29 06:10:58;;;;;;;;;;;19.50;49.90;;;;;;5086813;27;43037;-79
2023/04/29 06:13:25;;;;;;;;;;;19.50;49.80;;;;;;5087745;27;43071;-79
2023/04/29 06:15:50;;;;;;;;;;;19.60;49.90;;;;;;5087128;27;42830;-78
2023/04/29 06:18:16;;;;;;;;;;;19.50;49.80;;;;;;5084716;28;43004;-78
2023/04/29 06:20:41;;;;;;;;;;;19.50;49.80;;;;;;5086973;28;43102;-78
2023/04/29 06:23:07;;;;;;;;;;;19.50;50.30;;;;;;5086542;28;43701;-78
2023/04/29 06:25:33;;;;;;;;;;;19.50;51.00;;;;;;5075293;28;44796;-79
2023/04/29 06:27:59;;;;;;;;;;;;;;;;;;5086111;28;43387;-79
2023/04/29 06:30:25;;;;;;;;;;;19.50;51.60;;;;;;5084431;28;42986;-79
2023/04/29 06:32:50;;;;;;;;;;;19.50;51.70;;;;;;5083292;28;42954;-79
2023/04/29 06:35:16;;;;;;;;;;;19.40;51.70;;;;;;5085384;27;43024;-78
2023/04/29 06:37:41;;;;;;;;;;;19.40;51.80;;;;;;5093258;27;43545;-78
2023/04/29 06:40:07;;;;;;;;;;;19.40;51.80;;;;;;5085394;27;43053;-79
2023/04/29 06:42:33;;;;;;;;;;;;;;;;;;5082737;28;43136;-80
2023/04/29 06:44:59;;;;;;;;;;;19.50;52.10;;;;;;5082389;28;42945;-80
2023/04/29 06:47:24;;;;;;;;;;;19.40;51.90;;;;;;5084535;28;44374;-81
2023/04/29 06:49:51;;;;;;;;;;;19.50;52.30;;;;;;5086716;28;42836;-82
2023/04/29 06:52:17;;;;;;;;;;;19.40;51.20;;;;;;5085167;27;44081;-82
2023/04/29 06:54:43;;;;;;;;;;;19.50;51.40;;;;;;5084840;27;43055;-81
2023/04/29 06:57:08;;;;;;;;;;;19.50;51.90;;;;;;5080311;27;43490;-81
2023/04/29 06:59:35;;;;;;;;;;;;;;;;;;5085686;28;42987;-81
2023/04/29 07:02:00;;;;;;;;;;;19.50;51.20;;;;;;5085814;27;43317;-81
2023/04/29 07:04:26;;;;;;;;;;;19.50;51.10;;;;;;5086236;28;42902;-81
2023/04/29 07:06:52;;;;;;;;;;;19.50;51.10;;;;;;5084511;28;43049;-81
2023/04/29 07:09:18;;;;;;;;;;;19.60;50.90;;;;;;5084078;28;43297;-81
2023/04/29 07:11:43;;;;;;;;;;;19.60;50.70;;;;;;5084839;27;43501;-85
2023/04/29 07:14:09;;;;;;;;;;;19.50;50.60;;;;;;5086429;28;42977;-84
2023/04/29 07:16:35;;;;;;;;;;;19.50;50.70;;;;;;5081214;27;43804;-87
2023/04/29 07:19:00;;;;;;;;;;;19.50;50.70;;;;;;5084329;28;42928;-87
2023/04/29 07:21:26;;;;;;;;;;;19.50;50.30;;;;;;5085813;28;42976;-85
2023/04/29 07:23:51;;;;;;;;;;;19.50;49.90;;;;;;5081147;28;42862;-88
2023/04/29 07:26:17;;;;;;;;;;;19.50;49.90;;;;;;5084974;28;43626;-86
2023/04/29 07:28:46;;;;;;;;;;;19.50;49.90;;;;;;5085521;27;42937;-86
2023/04/29 07:31:11;;;;;;;;;;;19.40;50.00;;;;;;5086061;27;42973;-87
2023/04/29 07:33:37;;;;;;;;;;;19.30;49.90;;;;;;5086085;28;43039;-86
2023/04/29 07:36:03;;;;;;;;;;;19.40;49.50;;;;;;5085415;27;43394;-88
2023/04/29 07:38:29;;;;;;;;;;;19.40;49.20;;;;;;5084653;27;43000;-86
2023/04/29 07:40:55;;;;;;;;;;;19.50;49.00;;;;;;5085729;27;44353;-86
2023/04/29 07:43:20;;;;;;;;;;;19.50;48.60;;;;;;5085573;27;42956;-86
2023/04/29 07:45:46;;;;;;;;;;;19.50;49.00;;;;;;5085550;27;43355;-80
2023/04/29 07:48:12;;;;;;;;;;;19.40;49.00;;;;;;5085841;27;43066;-83
2023/04/29 07:50:37;;;;;;;;;;;19.40;49.10;;;;;;5085020;27;42850;-84
2023/04/29 07:53:03;;;;;;;;;;;19.30;49.00;;;;;;5085119;27;42933;-83
2023/04/29 07:55:29;;;;;;;;;;;19.40;49.00;;;;;;5085696;28;43736;-84
2023/04/29 07:57:55;;;;;;;;;;;19.40;49.10;;;;;;5085117;28;42896;-82
2023/04/29 08:00:21;;;;;;;;;;;19.40;49.10;;;;;;5079271;27;42991;-83
2023/04/29 08:02:51;;;;;;;;;;;19.30;49.10;;;;;;5083518;28;43026;-82
2023/04/29 08:05:16;;;;;;;;;;;19.40;49.30;;;;;;5083035;27;43063;-92
2023/04/29 08:07:44;;;;;;;;;;;19.40;49.20;;;;;;5084020;28;42962;-92
2023/04/29 08:10:10;;;;;;;;;;;19.30;49.10;;;;;;5084302;27;43694;-91
2023/04/29 08:12:39;;;;;;;;;;;19.50;49.00;;;;;;5087917;27;43025;-91
2023/04/29 08:15:11;;;;;;;;;;;;;;;;;;5083495;28;44628;-91
2023/04/29 08:17:42;;;;;;;;;;;19.60;49.00;;;;;;5083021;28;43083;-91
2023/04/29 08:20:10;;;;;;;;;;;19.50;49.00;;;;;;5084261;28;42941;-91
2023/04/29 08:22:36;;;;;;;;;;;19.50;49.50;;;;;;5083134;27;43073;-85
2023/04/29 08:25:04;;;;;;;;;;;19.50;49.60;;;;;;5083983;28;43403;-82
2023/04/29 08:27:30;;;;;;;;;;;19.40;49.80;;;;;;5082182;28;43019;-82
2023/04/29 08:29:55;;;;;;;;;;;19.40;50.00;;;;;;5080424;28;43566;-84
2023/04/29 08:32:21;;;;;;;;;;;19.40;50.10;;;;;;5082557;28;43333;-84
2023/04/29 08:34:47;;;;;;;;;;;19.40;50.10;;;;;;5084563;27;43457;-85
2023/04/29 08:37:12;;;;;;;;;;;19.40;50.00;;;;;;5083144;28;43122;-84
2023/04/29 08:39:38;;;;;;;;;;;19.40;49.80;;;;;;5085110;27;42994;-87
2023/04/29 08:42:07;;;;;;;;;;;19.40;49.80;;;;;;5084991;27;42918;-89
2023/04/29 08:44:33;;;;;;;;;;;19.50;49.80;;;;;;5085024;27;43025;-88
2023/04/29 08:46:59;;;;;;;;;;;19.40;49.80;;;;;;5085215;27;42924;-87
2023/04/29 08:49:26;;;;;;;;;;;19.40;50.00;;;;;;5084498;27;43373;-87
2023/04/29 08:51:52;;;;;;;;;;;19.30;50.00;;;;;;5083007;28;42962;-83
2023/04/29 08:54:17;;;;;;;;;;;19.30;50.00;;;;;;5083251;28;43012;-88
2023/04/29 08:56:46;;;;;;;;;;;19.40;49.70;;;;;;5083768;28;43015;-86
2023/04/29 08:59:16;;;;;;;;;;;19.30;49.40;;;;;;5084665;28;42868;-88
2023/04/29 09:01:42;;;;;;;;;;;19.40;49.50;;;;;;5085309;28;42990;-86
2023/04/29 09:04:26;;;;;;;;;;;19.40;49.50;;;;;;5082213;27;43494;-88
2023/04/29 09:06:54;;;;;;;;;;;19.40;49.60;;;;;;5089602;27;43014;-81
2023/04/29 09:09:20;;;;;;;;;;;19.50;49.70;;;;;;5091920;27;44460;-89
2023/04/29 09:11:46;;;;;;;;;;;19.50;49.40;;;;;;5085020;27;43030;-88
2023/04/29 09:14:12;;;;;;;;;;;19.40;49.50;;;;;;5083132;28;43097;-88
2023/04/29 09:16:37;;;;;;;;;;;19.40;49.60;;;;;;5084565;28;42893;-87
2023/04/29 09:19:03;;;;;;;;;;;19.40;49.60;;;;;;5083384;27;43807;-89
2023/04/29 09:21:32;;;;;;;;;;;19.40;49.60;;;;;;5084758;28;42849;-88
2023/04/29 09:23:58;;;;;;;;;;;19.30;49.10;;;;;;5081761;27;44291;-88
2023/04/29 09:26:24;;;;;;;;;;;19.40;49.20;;;;;;5092646;27;43006;-88
2023/04/29 09:29:08;;;;;;;;;;;19.30;49.40;;;;;;5090878;27;44762;-88
2023/04/29 09:31:33;;;;;;;;;;;19.30;48.80;;;;;;5110744;27;42896;-88
2023/04/29 09:33:59;;;;;;;;;;;19.30;47.80;;;;;;5080104;27;44479;-88
2023/04/29 09:36:35;;;;;;;;;;;19.30;47.90;;;;;;5080411;27;42946;-89
2023/04/29 09:39:01;;;;;;;;;;;19.30;48.10;;;;;;5092038;27;44875;-89
2023/04/29 09:41:26;;;;;;;;;;;19.30;46.80;;;;;;5081192;28;42849;-89
2023/04/29 09:44:05;;;;;;;;;;;19.40;46.60;;;;;;5083685;28;43142;-89
2023/04/29 09:46:35;;;;;;;;;;;19.40;46.50;;;;;;5080101;28;43125;-89
2023/04/29 09:49:21;;;;;;;;;;;19.40;46.60;;;;;;5082846;28;43053;-90
2023/04/29 09:51:53;;;;;;;;;;;19.40;46.20;;;;;;5084384;28;43137;-90
2023/04/29 09:54:20;;;;;;;;;;;19.30;46.60;;;;;;5083809;28;43710;-87
2023/04/29 09:56:50;;;;;;;;;;;19.40;46.80;;;;;;5071157;28;42959;-90
2023/04/29 09:59:16;;;;;;;;;;;19.40;46.90;;;;;;5069553;28;43325;-88
2023/04/29 10:01:42;;;;;;;;;;;19.30;47.10;;;;;;5081604;27;43042;-93
2023/04/29 10:04:10;;;;;;;;;;;19.30;47.30;;;;;;5081277;27;43155;-92
2023/04/29 10:06:36;;;;;;;;;;;19.40;47.20;;;;;;5091043;27;42958;-92
2023/04/29 10:09:02;;;;;;;;;;;19.40;47.10;;;;;;5094671;27;43556;-91
2023/04/29 10:11:27;;;;;;;;;;;19.40;47.10;;;;;;5089521;27;43268;-92
2023/04/29 10:13:53;;;;;;;;;;;19.40;47.10;;;;;;5075288;28;45283;-86
2023/04/29 10:16:31;;;;;;;;;;;19.40;47.10;;;;;;5076945;28;42944;-90
2023/04/29 10:18:57;;;;;;;;;;;;;;;;;;5080166;28;43081;-90
2023/04/29 10:21:32;;;;;;;;;;;19.40;47.30;;;;;;5080914;28;43044;-92
2023/04/29 10:23:58;;;;;;;;;;;19.40;47.20;;;;;;5080971;28;43447;-92
2023/04/29 10:26:28;;;;;;;;;;;19.40;47.40;;;;;;5082447;28;43403;-91
2023/04/29 10:28:58;;;;;;;;;;;19.40;47.40;;;;;;5082655;28;43553;-92
2023/04/29 10:31:24;;;;;;;;;;;;;;;;;;5081247;27;43653;-91
2023/04/29 10:33:50;;;;;;;;;;;19.40;47.00;;;;;;5096026;27;43094;-92
2023/04/29 10:36:16;;;;;;;;;;;19.40;47.10;;;;;;5088489;27;42941;-89
2023/04/29 10:38:46;;;;;;;;;;;19.40;47.10;;;;;;5086182;27;42944;-92
2023/04/29 10:41:24;;;;;;;;;;;19.40;47.10;;;;;;5081871;28;42922;-91
2023/04/29 10:43:52;;;;;;;;;;;19.40;47.10;;;;;;5084459;28;43754;-92
2023/04/29 10:46:19;;;;;;;;;;;19.40;46.80;;;;;;5081959;28;43170;-85
2023/04/29 10:48:48;;;;;;;;;;;19.40;46.80;;;;;;5085156;28;43268;-86
2023/04/29 10:51:28;;;;;;;;;;;19.40;47.10;;;;;;5082258;28;43117;-85
2023/04/29 10:53:57;;;;;;;;;;;19.40;47.20;;;;;;5081205;28;45661;-86
2023/04/29 10:56:33;;;;;;;;;;;19.40;47.30;;;;;;5079038;27;44156;-88
2023/04/29 10:58:59;;;;;;;;;;;19.40;47.30;;;;;;5085175;27;43528;-86
2023/04/29 11:01:39;;;;;;;;;;;19.40;47.50;;;;;;5082284;28;42913;-86
2023/04/29 11:04:05;;;;;;;;;;;19.40;47.60;;;;;;5084192;28;43298;-86
2023/04/29 11:06:33;;;;;;;;;;;19.40;47.50;;;;;;5083867;28;43253;-87
2023/04/29 11:09:08;;;;;;;;;;;19.40;47.40;;;;;;5083649;28;43414;-87
2023/04/29 11:11:53;;;;;;;;;;;19.40;47.40;;;;;;5083059;28;42963;-87
2023/04/29 11:14:30;;;;;;;;;;;19.40;47.40;;;;;;5083424;27;43640;-87
2023/04/29 11:16:57;;;;;;;;;;;19.40;47.40;;;;;;5081372;28;43312;-84
2023/04/29 11:19:30;;;;;;;;;;;19.40;47.40;;;;;;5084191;28;43478;-85
2023/04/29 11:22:12;;;;;;;;;;;19.40;47.40;;;;;;5082544;28;43340;-83
2023/04/29 11:24:48;;;;;;;;;;;19.40;47.20;;;;;;5082130;28;43858;-85
2023/04/29 11:27:14;;;;;;;;;;;19.40;47.20;;;;;;5085481;28;43324;-85
2023/04/29 11:29:40;;;;;;;;;;;19.50;47.30;;;;;;5084824;27;43267;-86
2023/04/29 11:32:06;;;;;;;;;;;19.40;47.30;;;;;;5084337;27;43000;-85
2023/04/29 11:34:32;;;;;;;;;;;;;;;;;;5081369;27;43021;-85
2023/04/29 11:36:58;;;;;;;;;;;19.50;47.40;;;;;;5078596;28;43266;-85
2023/04/29 11:39:23;;;;;;;;;;;19.40;47.30;;;;;;5083852;27;43533;-85
2023/04/29 11:41:49;;;;;;;;;;;19.40;47.40;;;;;;5084541;27;43132;-84
2023/04/29 11:44:20;;;;;;;;;;;19.40;47.40;;;;;;5083453;27;43280;-84
2023/04/29 11:46:45;;;;;;;;;;;19.40;47.60;;;;;;5094624;27;43058;-85
2023/04/29 11:49:11;;;;;;;;;;;19.40;47.60;;;;;;5085686;27;43489;-83
2023/04/29 11:51:36;;;;;;;;;;;19.40;47.70;;;;;;5083144;28;43035;-84
2023/04/29 11:54:02;;;;;;;;;;;19.40;47.80;;;;;;5085706;28;44135;-84
2023/04/29 11:56:27;;;;;;;;;;;19.40;47.90;;;;;;5075235;28;42936;-83
2023/04/29 11:58:55;;;;;;;;;;;19.40;47.90;;;;;;5083474;28;44792;-86
2023/04/29 12:01:21;;;;;;;;;;;19.40;47.80;;;;;;5084892;27;42941;-84
2023/04/29 12:03:47;;;;;;;;;;;;;;;;;;5083623;27;42945;-86
2023/04/29 12:06:13;;;;;;;;;;;19.40;48.00;;;;;;5082073;28;43248;-84
2023/04/29 12:08:38;;;;;;;;;;;19.40;47.90;;;;;;5079547;27;43307;-85
2023/04/29 12:11:04;;;;;;;;;;;;;;;;;;5082546;28;43031;-84
2023/04/29 12:13:30;;;;;;;;;;;19.40;47.80;;;;;;5083725;27;43750;-85
2023/04/29 12:15:57;;;;;;;;;;;19.50;47.90;;;;;;5083348;27;43074;-84
2023/04/29 12:18:23;;;;;;;;;;;;;;;;;;5084733;27;43107;-85
2023/04/29 12:20:52;;;;;;;;;;;19.40;48.00;;;;;;5082261;28;43066;-85
2023/04/29 12:23:49;;;;;;;;;;;;;;;;;;;;;
2023/04/29 12:26:16;;;;;;;;;;;19.50;48.10;;;;;;5080487;28;69490;-85
2023/04/29 12:28:42;;;;;;;;;;;19.40;48.10;;;;;;5079467;28;43846;-85
2023/04/29 12:31:08;;;;;;;;;;;19.50;48.20;;;;;;5083757;28;43079;-84
2023/04/29 12:33:33;;;;;;;;;;;19.40;48.20;;;;;;5084677;27;43449;-83
2023/04/29 12:36:02;;;;;;;;;;;19.50;48.40;;;;;;5093065;27;42757;-86
2023/04/29 12:38:31;;;;;;;;;;;19.40;48.40;;;;;;5093148;27;42856;-85
2023/04/29 12:41:04;;;;;;;;;;;19.40;48.50;;;;;;5084639;27;42952;-84
2023/04/29 12:43:32;;;;;;;;;;;19.50;48.60;;;;;;5082304;27;44193;-85
2023/04/29 12:46:08;;;;;;;;;;;19.50;48.60;;;;;;5081792;28;43202;-85
2023/04/29 12:48:42;;;;;;;;;;;19.50;48.70;;;;;;5082404;28;45027;-85
2023/04/29 12:51:11;;;;;;;;;;;19.50;48.60;;;;;;5082865;27;43153;-85
2023/04/29 12:53:40;;;;;;;;;;;19.50;48.60;;;;;;5084042;27;42925;-85
2023/04/29 12:56:05;;;;;;;;;;;19.50;48.60;;;;;;5085507;27;42936;-85
2023/04/29 12:58:32;;;;;;;;;;;19.50;48.70;;;;;;5085251;27;43718;-85
2023/04/29 13:00:58;;;;;;;;;;;19.50;48.80;;;;;;5084053;28;43123;-85
2023/04/29 13:03:23;;;;;;;;;;;19.50;48.80;;;;;;5085149;28;43966;-84
2023/04/29 13:05:52;;;;;;;;;;;19.50;48.80;;;;;;5084458;28;42918;-85
2023/04/29 13:08:18;;;;;;;;;;;19.50;48.80;;;;;;5082528;28;43992;-85
2023/04/29 13:10:43;;;;;;;;;;;19.50;49.00;;;;;;5085826;28;42999;-85
2023/04/29 13:13:09;;;;;;;;;;;19.50;49.00;;;;;;5085510;28;43048;-84
2023/04/29 13:15:35;;;;;;;;;;;19.50;49.00;;;;;;5084958;27;43003;-85
2023/04/29 13:18:01;;;;;;;;;;;19.40;48.90;;;;;;5084496;27;43862;-84
2023/04/29 13:20:26;;;;;;;;;;;19.50;48.80;;;;;;5085395;28;42934;-85
2023/04/29 13:22:52;;;;;;;;;;;19.50;48.80;;;;;;5085501;27;43761;-85
2023/04/29 13:25:17;;;;;;;;;;;19.50;48.70;;;;;;5085078;28;43027;-85
2023/04/29 13:27:43;;;;;;;;;;;19.50;48.70;;;;;;5084589;27;43054;-86
2023/04/29 13:30:09;;;;;;;;;;;19.50;48.60;;;;;;5083582;28;43021;-85
2023/04/29 13:32:35;;;;;;;;;;;19.50;48.60;;;;;;5084773;28;43985;-84
2023/04/29 13:35:00;;;;;;;;;;;19.50;48.60;;;;;;5085059;27;42909;-85
2023/04/29 13:37:26;;;;;;;;;;;19.50;48.60;;;;;;5084994;28;42896;-85
2023/04/29 13:39:51;;;;;;;;;;;19.50;48.50;;;;;;5085071;28;42967;-85
2023/04/29 13:42:26;;;;;;;;;;;19.50;48.60;;;;;;5083690;28;44590;-86
2023/04/29 13:44:54;;;;;;;;;;;19.50;48.60;;;;;;5084741;28;42915;-85
2023/04/29 13:47:27;;;;;;;;;;;;;;;;;;5082842;28;44581;-86
2023/04/29 13:49:53;;;;;;;;;;;19.50;48.60;;;;;;5083058;28;43001;-85
2023/04/29 13:52:18;;;;;;;;;;;19.50;48.60;;;;;;5083433;28;44522;-86
2023/04/29 13:54:44;;;;;;;;;;;19.50;48.50;;;;;;5082944;28;43083;-85
2023/04/29 13:57:12;;;;;;;;;;;19.50;48.60;;;;;;5083322;28;44576;-85
2023/04/29 13:59:38;;;;;;;;;;;19.50;48.60;;;;;;5084885;27;43059;-85
2023/04/29 14:02:03;;;;;;;;;;;19.50;48.60;;;;;;5085427;27;43055;-85
2023/04/29 14:04:29;;;;;;;;;;;19.50;48.70;;;;;;5085832;28;43065;-85
2023/04/29 14:06:57;;;;;;;;;;;19.50;48.70;;;;;;5088332;28;43171;-86
2023/04/29 14:09:23;;;;;;;;;;;19.50;48.70;;;;;;5088075;28;42986;-85
2023/04/29 14:11:52;;;;;;;;;;;19.50;48.90;;;;;;5086573;28;45396;-86
2023/04/29 14:14:21;;;;;;;;;;;;;;;;;;5088313;27;42992;-85
2023/04/29 14:16:47;;;;;;;;;;;19.50;48.80;;;;;;5087975;28;42929;-85
2023/04/29 14:19:13;;;;;;;;;;;19.50;48.90;;;;;;5088333;28;43077;-85
2023/04/29 14:21:38;;;;;;;;;;;19.50;48.80;;;;;;5086852;28;43804;-85